createdAt,value
2019-03-02T00:00:34.892Z,81.59
2019-03-02T00:02:26.719Z,82.16
2019-03-02T00:03:26.727Z,82.26
2019-03-02T00:05:20.829Z,83.11
2019-03-02T00:06:19.634Z,83.11
2019-03-02T00:08:12.536Z,83.78
2019-03-02T00:09:12.540Z,83.68
2019-03-02T00:11:05.455Z,83.97
2019-03-02T00:12:05.448Z,85.01
2019-03-02T00:13:58.347Z,84.44
2019-03-02T00:14:58.359Z,84.82
2019-03-02T00:16:51.265Z,85.11
2019-03-02T00:17:54.217Z,85.39
2019-03-02T00:19:44.166Z,85.77
2019-03-02T00:20:44.176Z,85.96
2019-03-02T00:22:39.682Z,85.58
2019-03-02T00:23:37.093Z,86.43
2019-03-02T00:25:30.707Z,86.63
2019-03-02T00:26:29.990Z,87.48
2019-03-02T00:28:22.933Z,87.38
2019-03-02T00:29:22.949Z,87.95
2019-03-02T00:31:15.804Z,87.76
2019-03-02T00:32:15.808Z,88.81
2019-03-02T00:34:08.724Z,88.43
2019-03-02T00:35:08.809Z,88.62
2019-03-02T00:37:01.740Z,89.09
2019-03-02T00:38:04.954Z,89.67
2019-03-02T00:39:55.605Z,90.42
2019-03-02T00:40:54.565Z,89.76
2019-03-02T00:42:48.821Z,90.00
2019-03-02T00:43:47.472Z,91.14
2019-03-02T00:45:40.397Z,91.24
2019-03-02T00:46:40.408Z,91.52
2019-03-02T00:48:33.809Z,91.61
2019-03-02T00:49:33.811Z,92.28
2019-03-02T00:51:26.719Z,92.28
2019-03-02T00:52:26.721Z,91.99
2019-03-02T00:54:19.642Z,92.90
2019-03-02T00:55:19.629Z,92.28
2019-03-02T00:57:14.871Z,92.90
2019-03-02T00:58:12.539Z,92.75
2019-03-02T01:00:05.936Z,92.99
2019-03-02T01:01:05.935Z,92.80
2019-03-02T01:02:58.850Z,92.71
2019-03-02T01:03:58.854Z,92.80
2019-03-02T01:05:51.788Z,92.80
2019-03-02T01:06:51.768Z,92.99
2019-03-02T01:08:44.664Z,92.80
2019-03-02T01:09:46.529Z,92.51
2019-03-02T01:11:37.577Z,92.51
2019-03-02T01:12:40.330Z,92.51
2019-03-02T01:14:31.875Z,92.51
2019-03-02T01:15:30.483Z,92.71
2019-03-02T01:17:26.797Z,92.04
2019-03-02T01:18:23.403Z,92.42
2019-03-02T01:20:16.298Z,91.75
2019-03-02T01:21:16.314Z,92.23
2019-03-02T01:23:09.234Z,91.66
2019-03-02T01:24:09.233Z,91.66
2019-03-02T01:26:02.146Z,91.85
2019-03-02T01:27:02.153Z,92.04
2019-03-02T01:28:55.550Z,92.04
2019-03-02T01:29:55.570Z,92.13
2019-03-02T01:31:48.465Z,91.47
2019-03-02T01:32:52.331Z,91.66
2019-03-02T01:34:42.286Z,91.38
2019-03-02T01:35:41.374Z,91.66
2019-03-02T01:37:34.285Z,91.47
2019-03-02T01:38:34.292Z,91.66
2019-03-02T01:40:27.186Z,91.94
2019-03-02T01:41:27.195Z,91.56
2019-03-02T01:43:20.102Z,91.85
2019-03-02T01:44:20.099Z,91.94
2019-03-02T01:46:13.009Z,91.85
2019-03-02T01:47:15.752Z,91.75
2019-03-02T01:49:05.922Z,91.94
2019-03-02T01:50:08.656Z,91.75
2019-03-02T01:51:59.125Z,92.80
2019-03-02T01:52:58.848Z,92.61
2019-03-02T01:54:52.561Z,91.85
2019-03-02T01:55:51.745Z,92.04
2019-03-02T01:57:44.660Z,91.38
2019-03-02T01:58:44.663Z,91.56
2019-03-02T02:00:37.557Z,91.66
2019-03-02T02:01:37.568Z,90.71
2019-03-02T02:03:32.971Z,90.05
2019-03-02T02:04:32.974Z,89.86
2019-03-02T02:06:25.910Z,87.95
2019-03-02T02:07:25.879Z,86.82
2019-03-02T02:09:18.789Z,86.34
2019-03-02T02:10:18.794Z,86.05
2019-03-02T02:12:11.706Z,86.34
2019-03-02T02:13:11.719Z,86.82
2019-03-02T02:15:04.599Z,86.82
2019-03-02T02:16:05.677Z,87.48
2019-03-02T02:17:57.522Z,88.24
2019-03-02T02:18:59.286Z,88.15
2019-03-02T02:20:51.641Z,88.62
2019-03-02T02:21:50.920Z,88.71
2019-03-02T02:23:45.793Z,89.09
2019-03-02T02:24:43.835Z,89.09
2019-03-02T02:26:36.733Z,89.38
2019-03-02T02:27:36.744Z,89.38
2019-03-02T02:29:29.655Z,90.05
2019-03-02T02:30:29.654Z,89.86
2019-03-02T02:32:24.000Z,89.86
2019-03-02T02:33:22.573Z,89.95
2019-03-02T02:35:15.471Z,90.52
2019-03-02T02:36:18.866Z,90.52
2019-03-02T02:38:11.071Z,91.28
2019-03-02T02:39:08.390Z,91.19
2019-03-02T02:41:01.286Z,91.28
2019-03-02T02:42:05.300Z,91.47
2019-03-02T02:43:58.929Z,91.47
2019-03-02T02:44:54.203Z,91.38
2019-03-02T02:46:47.105Z,91.28
2019-03-02T02:47:51.688Z,91.19
2019-03-02T02:49:44.503Z,91.28
2019-03-02T02:50:40.035Z,90.99
2019-03-02T02:52:32.925Z,91.19
2019-03-02T02:53:32.926Z,90.90
2019-03-02T02:55:25.866Z,91.38
2019-03-02T02:56:25.843Z,91.66
2019-03-02T02:58:19.455Z,91.66
2019-03-02T02:59:18.749Z,91.56
2019-03-02T03:01:11.657Z,91.66
2019-03-02T03:02:12.246Z,91.56
2019-03-02T03:04:04.592Z,91.28
2019-03-02T03:05:04.576Z,91.28
2019-03-02T03:06:57.468Z,91.09
2019-03-02T03:07:57.482Z,91.47
2019-03-02T03:09:50.858Z,91.56
2019-03-02T03:10:50.391Z,91.38
2019-03-02T03:12:43.312Z,91.56
2019-03-02T03:13:43.325Z,91.09
2019-03-02T03:15:38.483Z,91.09
2019-03-02T03:16:36.208Z,91.09
2019-03-02T03:18:29.123Z,90.99
2019-03-02T03:19:30.964Z,90.99
2019-03-02T03:21:26.820Z,91.28
2019-03-02T03:22:22.065Z,90.52
2019-03-02T03:24:14.945Z,90.23
2019-03-02T03:25:18.023Z,91.19
2019-03-02T03:27:09.091Z,91.09
2019-03-02T03:28:07.853Z,91.09
2019-03-02T03:30:00.967Z,91.28
2019-03-02T03:31:00.969Z,91.28
2019-03-02T03:32:58.442Z,90.99
2019-03-02T03:33:53.886Z,90.99
2019-03-02T03:35:46.789Z,91.28
2019-03-02T03:36:46.791Z,91.38
2019-03-02T03:38:39.713Z,90.80
2019-03-02T03:39:41.833Z,91.09
2019-03-02T03:41:32.612Z,91.09
2019-03-02T03:42:32.618Z,90.90
2019-03-02T03:44:27.326Z,90.99
2019-03-02T03:45:28.036Z,90.99
2019-03-02T03:47:18.430Z,90.99
2019-03-02T03:48:19.401Z,90.90
2019-03-02T03:50:14.149Z,91.19
2019-03-02T03:51:11.437Z,91.09
2019-03-02T03:53:04.252Z,91.09
2019-03-02T03:54:06.852Z,91.09
2019-03-02T03:56:03.431Z,91.56
2019-03-02T03:56:57.172Z,91.56
2019-03-02T03:58:50.568Z,91.56
2019-03-02T03:59:53.395Z,91.66
2019-03-02T04:01:43.477Z,91.38
2019-03-02T04:02:43.482Z,91.38
2019-03-02T04:04:36.388Z,91.38
2019-03-02T04:05:36.393Z,91.38
2019-03-02T04:07:29.289Z,91.47
2019-03-02T04:08:29.982Z,91.56
2019-03-02T04:10:25.920Z,91.28
2019-03-02T04:11:22.218Z,91.56
2019-03-02T04:13:15.113Z,91.09
2019-03-02T04:14:19.195Z,91.28
2019-03-02T04:16:08.032Z,90.80
2019-03-02T04:17:08.036Z,90.99
2019-03-02T04:19:00.939Z,90.90
2019-03-02T04:20:00.945Z,90.99
2019-03-02T04:21:53.860Z,91.09
2019-03-02T04:22:53.855Z,90.90
2019-03-02T04:24:46.759Z,91.09
2019-03-02T04:25:46.762Z,90.90
2019-03-02T04:27:39.658Z,90.90
2019-03-02T04:28:39.669Z,91.28
2019-03-02T04:30:33.065Z,91.56
2019-03-02T04:31:33.078Z,91.56
2019-03-02T04:33:25.975Z,91.28
2019-03-02T04:34:25.980Z,91.56
2019-03-02T04:36:18.897Z,91.75
2019-03-02T04:37:20.235Z,91.47
2019-03-02T04:39:13.588Z,91.47
2019-03-02T04:40:11.801Z,91.56
2019-03-02T04:42:04.737Z,91.56
2019-03-02T04:43:04.719Z,91.66
2019-03-02T04:44:57.624Z,91.66
2019-03-02T04:45:57.638Z,91.66
2019-03-02T04:47:50.548Z,92.04
2019-03-02T04:48:50.536Z,92.04
2019-03-02T04:50:43.436Z,91.94
2019-03-02T04:51:43.440Z,91.75
2019-03-02T04:53:36.450Z,92.04
2019-03-02T04:54:37.721Z,91.75
2019-03-02T04:56:29.276Z,91.85
2019-03-02T04:57:29.459Z,91.85
2019-03-02T04:59:22.999Z,91.94
2019-03-02T05:00:22.168Z,92.23
2019-03-02T05:02:16.809Z,91.75
2019-03-02T05:03:15.077Z,91.94
2019-03-02T05:05:08.316Z,91.94
2019-03-02T05:06:07.983Z,91.85
2019-03-02T05:08:01.832Z,91.94
2019-03-02T05:09:00.896Z,91.75
2019-03-02T05:10:53.813Z,91.94
2019-03-02T05:11:53.803Z,92.04
2019-03-02T05:13:46.707Z,91.94
2019-03-02T05:14:46.722Z,92.51
2019-03-02T05:16:39.627Z,92.23
2019-03-02T05:17:42.502Z,92.61
2019-03-02T05:19:32.533Z,92.61
2019-03-02T05:20:32.709Z,92.61
2019-03-02T05:22:25.435Z,92.71
2019-03-02T05:23:27.569Z,92.51
2019-03-02T05:25:19.100Z,92.61
2019-03-02T05:26:18.351Z,92.04
2019-03-02T05:28:11.243Z,92.61
2019-03-02T05:29:11.254Z,92.51
2019-03-02T05:31:06.288Z,92.32
2019-03-02T05:32:04.164Z,92.13
2019-03-02T05:34:00.753Z,93.18
2019-03-02T05:34:57.866Z,93.27
2019-03-02T05:36:50.477Z,93.23
2019-03-02T05:37:50.477Z,93.37
2019-03-02T05:39:43.888Z,93.27
2019-03-02T05:40:43.883Z,93.56
2019-03-02T05:42:36.790Z,94.13
2019-03-02T05:43:36.799Z,94.32
2019-03-02T05:45:30.699Z,93.99
2019-03-02T05:46:30.700Z,94.13
2019-03-02T05:48:23.605Z,94.56
2019-03-02T05:49:23.617Z,94.46
2019-03-02T05:51:16.543Z,94.42
2019-03-02T05:52:17.872Z,94.27
2019-03-02T05:54:09.434Z,94.79
2019-03-02T05:55:09.442Z,94.42
2019-03-02T05:57:04.184Z,94.23
2019-03-02T05:58:02.841Z,94.23
2019-03-02T05:59:58.743Z,94.70
2019-03-02T06:00:55.755Z,93.94
2019-03-02T06:02:48.652Z,94.70
2019-03-02T06:03:48.662Z,94.79
2019-03-02T06:05:41.567Z,93.84
2019-03-02T06:06:41.568Z,94.23
2019-03-02T06:08:35.664Z,94.23
2019-03-02T06:09:34.488Z,94.13
2019-03-02T06:11:27.397Z,94.42
2019-03-02T06:12:27.395Z,94.13
2019-03-02T06:14:20.296Z,94.23
2019-03-02T06:15:20.310Z,94.32
2019-03-02T06:17:13.209Z,94.03
2019-03-02T06:18:13.211Z,94.23
2019-03-02T06:20:06.138Z,93.84
2019-03-02T06:21:07.712Z,94.13
2019-03-02T06:22:59.025Z,94.23
2019-03-02T06:24:01.550Z,94.13
2019-03-02T06:25:55.090Z,94.13
2019-03-02T06:26:51.939Z,94.32
2019-03-02T06:28:45.334Z,93.94
2019-03-02T06:29:45.343Z,94.32
2019-03-02T06:31:38.251Z,94.23
2019-03-02T06:32:38.254Z,94.03
2019-03-02T06:34:31.152Z,94.03
2019-03-02T06:35:32.825Z,94.13
2019-03-02T06:37:24.068Z,94.70
2019-03-02T06:38:24.072Z,94.70
2019-03-02T06:40:20.095Z,95.36
2019-03-02T06:41:16.996Z,95.08
2019-03-02T06:43:09.883Z,94.98
2019-03-02T06:44:09.896Z,94.70
2019-03-02T06:46:02.801Z,94.51
2019-03-02T06:47:02.806Z,94.70
2019-03-02T06:48:55.701Z,94.51
2019-03-02T06:49:59.056Z,94.79
2019-03-02T06:51:48.667Z,95.08
2019-03-02T06:52:48.622Z,94.89
2019-03-02T06:54:44.792Z,94.60
2019-03-02T06:55:41.528Z,94.70
2019-03-02T06:57:34.433Z,94.79
2019-03-02T06:58:34.441Z,94.89
2019-03-02T07:00:27.333Z,95.08
2019-03-02T07:01:27.346Z,94.79
2019-03-02T07:03:20.249Z,94.98
2019-03-02T07:04:21.866Z,95.08
2019-03-02T07:06:13.160Z,95.17
2019-03-02T07:07:13.163Z,95.27
2019-03-02T07:09:09.266Z,95.27
2019-03-02T07:10:06.071Z,94.98
2019-03-02T07:11:58.977Z,95.17
2019-03-02T07:12:58.982Z,95.55
2019-03-02T07:14:51.989Z,95.27
2019-03-02T07:15:51.890Z,95.17
2019-03-02T07:17:44.794Z,95.17
2019-03-02T07:18:44.796Z,95.08
2019-03-02T07:20:37.697Z,94.98
2019-03-02T07:21:41.424Z,95.08
2019-03-02T07:23:30.611Z,95.08
2019-03-02T07:24:30.615Z,95.08
2019-03-02T07:26:23.521Z,94.70
2019-03-02T07:27:26.389Z,95.17
2019-03-02T07:29:17.676Z,95.08
2019-03-02T07:30:16.433Z,95.27
2019-03-02T07:32:09.341Z,95.17
2019-03-02T07:33:09.345Z,95.27
2019-03-02T07:35:02.241Z,94.74
2019-03-02T07:36:02.256Z,95.32
2019-03-02T07:37:55.158Z,94.84
2019-03-02T07:38:56.557Z,95.12
2019-03-02T07:40:48.061Z,95.03
2019-03-02T07:41:48.069Z,95.12
2019-03-02T07:43:42.257Z,94.74
2019-03-02T07:44:40.977Z,94.37
2019-03-02T07:46:33.934Z,94.37
2019-03-02T07:47:33.885Z,94.65
2019-03-02T07:49:26.781Z,94.74
2019-03-02T07:50:29.540Z,94.27
2019-03-02T07:52:19.696Z,93.70
2019-03-02T07:53:19.703Z,93.70
2019-03-02T07:55:14.716Z,93.60
2019-03-02T07:56:12.607Z,93.41
2019-03-02T07:58:05.513Z,94.37
2019-03-02T07:59:05.517Z,94.93
2019-03-02T08:00:58.415Z,95.17
2019-03-02T08:01:58.425Z,95.22
2019-03-02T08:03:51.331Z,95.98
2019-03-02T08:04:51.335Z,95.60
2019-03-02T08:06:44.242Z,96.36
2019-03-02T08:07:44.247Z,95.70
2019-03-02T08:09:37.146Z,95.12
2019-03-02T08:10:38.735Z,95.22
2019-03-02T08:12:30.061Z,94.79
2019-03-02T08:13:32.752Z,95.17
2019-03-02T08:15:24.350Z,94.79
2019-03-02T08:16:22.978Z,94.22
2019-03-02T08:18:15.883Z,94.03
2019-03-02T08:19:15.887Z,93.75
2019-03-02T08:21:08.789Z,93.37
2019-03-02T08:22:11.068Z,93.65
2019-03-02T08:24:01.707Z,93.75
2019-03-02T08:25:01.711Z,93.46
2019-03-02T08:26:54.618Z,93.23
2019-03-02T08:27:54.622Z,93.23
2019-03-02T08:29:47.523Z,93.13
2019-03-02T08:30:47.537Z,92.27
2019-03-02T08:32:40.445Z,92.27
2019-03-02T08:33:45.934Z,91.61
2019-03-02T08:35:33.353Z,91.56
2019-03-02T08:36:34.362Z,90.61
2019-03-02T08:38:26.275Z,90.22
2019-03-02T08:39:26.278Z,90.80
2019-03-02T08:41:19.180Z,89.37
2019-03-02T08:42:19.192Z,89.08
2019-03-02T08:44:12.100Z,88.99
2019-03-02T08:45:12.105Z,88.99
2019-03-02T08:47:05.644Z,89.27
2019-03-02T08:48:05.023Z,88.51
2019-03-02T08:49:57.926Z,87.70
2019-03-02T08:50:57.938Z,88.08
2019-03-02T08:52:50.853Z,87.23
2019-03-02T08:53:50.854Z,87.32
2019-03-02T08:55:43.756Z,86.65
2019-03-02T08:56:47.485Z,86.75
2019-03-02T08:58:36.684Z,85.99
2019-03-02T08:59:38.151Z,85.13
2019-03-02T09:01:29.596Z,84.41
2019-03-02T09:02:29.603Z,84.94
2019-03-02T09:04:22.536Z,83.61
2019-03-02T09:05:26.127Z,83.36
2019-03-02T09:07:15.446Z,83.17
2019-03-02T09:08:15.451Z,82.69
2019-03-02T09:10:09.972Z,82.50
2019-03-02T09:11:08.392Z,82.21
2019-03-02T09:13:01.283Z,81.74
2019-03-02T09:14:01.289Z,82.12
2019-03-02T09:15:54.238Z,80.31
2019-03-02T09:16:54.229Z,80.79
2019-03-02T09:18:47.143Z,81.55
2019-03-02T09:19:47.146Z,81.84
2019-03-02T09:21:40.051Z,82.60
2019-03-02T09:22:40.064Z,82.98
2019-03-02T09:24:34.705Z,82.79
2019-03-02T09:25:35.120Z,82.60
2019-03-02T09:27:25.949Z,82.89
2019-03-02T09:28:25.958Z,82.12
2019-03-02T09:30:18.862Z,81.78
2019-03-02T09:31:25.854Z,81.59
2019-03-02T09:33:11.786Z,80.26
2019-03-02T09:34:11.796Z,80.16
2019-03-02T09:36:04.697Z,80.26
2019-03-02T09:37:07.078Z,80.16
2019-03-02T09:38:58.725Z,79.74
2019-03-02T09:39:57.629Z,79.46
2019-03-02T09:41:50.532Z,80.50
2019-03-02T09:42:50.546Z,80.50
2019-03-02T09:44:43.459Z,80.02
2019-03-02T09:45:44.818Z,80.22
2019-03-02T09:47:36.380Z,79.93
2019-03-02T09:48:36.383Z,79.83
2019-03-02T09:50:29.291Z,80.12
2019-03-02T09:51:29.304Z,79.74
2019-03-02T09:53:22.275Z,80.22
2019-03-02T09:54:22.223Z,80.31
2019-03-02T09:56:15.982Z,80.79
2019-03-02T09:57:15.142Z,80.69
2019-03-02T09:59:08.061Z,79.83
2019-03-02T10:00:08.059Z,79.83
2019-03-02T10:02:00.964Z,80.60
2019-03-02T10:03:00.977Z,80.75
2019-03-02T10:04:53.892Z,81.41
2019-03-02T10:05:53.902Z,81.65
2019-03-02T10:07:46.811Z,82.37
2019-03-02T10:08:48.916Z,82.56
2019-03-02T10:10:39.721Z,82.60
2019-03-02T10:11:39.740Z,82.12
2019-03-02T10:13:32.699Z,82.03
2019-03-02T10:14:32.707Z,81.46
2019-03-02T10:16:25.613Z,80.79
2019-03-02T10:17:25.625Z,80.88
2019-03-02T10:19:18.677Z,80.88
2019-03-02T10:20:18.545Z,80.60
2019-03-02T10:22:11.447Z,80.75
2019-03-02T10:23:11.461Z,80.36
2019-03-02T10:25:04.376Z,80.65
2019-03-02T10:26:07.440Z,80.84
2019-03-02T10:27:58.610Z,81.60
2019-03-02T10:28:57.297Z,81.79
2019-03-02T10:30:50.202Z,82.37
2019-03-02T10:31:50.212Z,81.93
2019-03-02T10:33:43.125Z,81.89
2019-03-02T10:34:43.129Z,81.60
2019-03-02T10:36:36.036Z,81.65
2019-03-02T10:37:36.045Z,81.65
2019-03-02T10:39:32.387Z,81.46
2019-03-02T10:40:28.961Z,81.74
2019-03-02T10:42:21.859Z,81.93
2019-03-02T10:43:21.873Z,81.36
2019-03-02T10:45:14.781Z,81.36
2019-03-02T10:46:14.787Z,81.46
2019-03-02T10:48:07.695Z,81.74
2019-03-02T10:49:10.153Z,81.36
2019-03-02T10:51:02.466Z,81.36
2019-03-02T10:52:00.617Z,81.26
2019-03-02T10:53:55.936Z,81.65
2019-03-02T10:54:55.581Z,81.46
2019-03-02T10:56:46.434Z,81.74
2019-03-02T10:57:46.447Z,81.46
2019-03-02T10:59:39.357Z,82.41
2019-03-02T11:00:39.365Z,82.41
2019-03-02T11:02:32.263Z,82.31
2019-03-02T11:03:32.985Z,81.84
2019-03-02T11:05:25.189Z,82.12
2019-03-02T11:06:25.193Z,82.41
2019-03-02T11:08:18.106Z,82.03
2019-03-02T11:09:22.353Z,82.03
2019-03-02T11:11:11.016Z,82.27
2019-03-02T11:12:11.029Z,82.60
2019-03-02T11:14:03.947Z,82.41
2019-03-02T11:15:07.279Z,82.60
2019-03-02T11:16:56.856Z,82.69
2019-03-02T11:17:58.792Z,82.31
2019-03-02T11:19:49.780Z,82.69
2019-03-02T11:20:49.783Z,82.60
2019-03-02T11:22:42.692Z,82.26
2019-03-02T11:23:42.789Z,81.88
2019-03-02T11:25:35.610Z,80.64
2019-03-02T11:26:35.617Z,81.30
2019-03-02T11:28:28.519Z,80.73
2019-03-02T11:29:28.533Z,80.64
2019-03-02T11:31:21.447Z,80.92
2019-03-02T11:32:21.535Z,80.26
2019-03-02T11:34:14.362Z,79.97
2019-03-02T11:35:14.373Z,79.97
2019-03-02T11:37:07.272Z,80.07
2019-03-02T11:38:07.287Z,80.26
2019-03-02T11:40:01.304Z,79.88
2019-03-02T11:41:00.204Z,79.21
2019-03-02T11:42:53.108Z,79.11
2019-03-02T11:43:53.376Z,79.78
2019-03-02T11:45:46.034Z,79.72
2019-03-02T11:46:46.037Z,79.25
2019-03-02T11:48:38.942Z,79.15
2019-03-02T11:49:39.363Z,79.44
2019-03-02T11:51:31.865Z,79.06
2019-03-02T11:52:34.970Z,79.06
2019-03-02T11:54:25.108Z,78.67
2019-03-02T11:55:24.789Z,79.15
2019-03-02T11:57:20.972Z,78.86
2019-03-02T11:58:17.705Z,78.96
2019-03-02T12:00:10.618Z,78.83
2019-03-02T12:01:10.623Z,78.92
2019-03-02T12:03:03.895Z,79.15
2019-03-02T12:04:03.541Z,79.06
2019-03-02T12:05:56.455Z,79.53
2019-03-02T12:06:57.572Z,78.77
2019-03-02T12:08:49.361Z,79.15
2019-03-02T12:09:49.374Z,78.86
2019-03-02T12:11:42.900Z,78.86
2019-03-02T12:12:42.292Z,78.86
2019-03-02T12:14:35.204Z,78.58
2019-03-02T12:15:35.211Z,78.01
2019-03-02T12:17:28.165Z,77.53
2019-03-02T12:18:28.134Z,78.20
2019-03-02T12:20:21.042Z,77.72
2019-03-02T12:21:22.069Z,77.87
2019-03-02T12:23:13.952Z,78.10
2019-03-02T12:24:15.218Z,78.44
2019-03-02T12:26:07.838Z,77.49
2019-03-02T12:27:06.881Z,77.78
2019-03-02T12:28:59.786Z,78.35
2019-03-02T12:29:59.924Z,78.25
2019-03-02T12:31:52.711Z,78.64
2019-03-02T12:32:52.723Z,78.35
2019-03-02T12:34:45.628Z,78.35
2019-03-02T12:35:45.634Z,78.64
2019-03-02T12:37:38.538Z,78.77
2019-03-02T12:38:38.555Z,78.30
2019-03-02T12:40:31.462Z,78.67
2019-03-02T12:41:31.468Z,78.10
2019-03-02T12:43:24.374Z,78.20
2019-03-02T12:44:24.441Z,77.82
2019-03-02T12:46:17.300Z,78.20
2019-03-02T12:47:17.334Z,78.10
2019-03-02T12:49:11.044Z,77.44
2019-03-02T12:50:10.270Z,76.96
2019-03-02T12:52:03.133Z,77.15
2019-03-02T12:53:03.152Z,77.25
2019-03-02T12:54:56.052Z,76.48
2019-03-02T12:55:56.988Z,76.67
2019-03-02T12:57:48.964Z,76.10
2019-03-02T12:58:48.998Z,75.81
2019-03-02T13:00:41.886Z,76.01
2019-03-02T13:01:43.034Z,76.10
2019-03-02T13:03:34.806Z,76.10
2019-03-02T13:04:34.812Z,76.67
2019-03-02T13:06:27.723Z,76.57
2019-03-02T13:07:27.730Z,76.20
2019-03-02T13:09:20.635Z,76.48
2019-03-02T13:10:20.648Z,76.20
2019-03-02T13:12:13.558Z,75.81
2019-03-02T13:13:17.005Z,76.20
2019-03-02T13:15:09.334Z,75.43
2019-03-02T13:16:06.833Z,75.62
2019-03-02T13:17:59.387Z,76.20
2019-03-02T13:18:59.401Z,75.81
2019-03-02T13:20:52.402Z,75.72
2019-03-02T13:21:52.417Z,76.01
2019-03-02T13:23:45.224Z,76.10
2019-03-02T13:24:45.240Z,75.53
2019-03-02T13:26:38.146Z,75.43
2019-03-02T13:27:38.158Z,75.81
2019-03-02T13:29:31.060Z,75.85
2019-03-02T13:30:31.073Z,75.66
2019-03-02T13:32:23.981Z,75.22
2019-03-02T13:33:23.989Z,75.32
2019-03-02T13:35:19.972Z,74.17
2019-03-02T13:36:16.910Z,73.69
2019-03-02T13:38:11.070Z,72.68
2019-03-02T13:39:14.068Z,72.49
2019-03-02T13:41:05.089Z,71.92
2019-03-02T13:42:02.775Z,70.96
2019-03-02T13:43:55.658Z,70.77
2019-03-02T13:44:55.673Z,69.91
2019-03-02T13:46:48.591Z,70.29
2019-03-02T13:47:50.025Z,70.39
2019-03-02T13:49:41.502Z,70.01
2019-03-02T13:50:41.516Z,70.29
2019-03-02T13:52:34.442Z,70.29
2019-03-02T13:53:34.482Z,70.39
2019-03-02T13:55:27.345Z,70.01
2019-03-02T13:56:29.957Z,69.47
2019-03-02T13:58:20.311Z,69.53
2019-03-02T13:59:20.338Z,69.72
2019-03-02T14:01:13.195Z,70.29
2019-03-02T14:02:13.201Z,70.39
2019-03-02T14:04:06.105Z,70.67
2019-03-02T14:05:07.066Z,69.72
2019-03-02T14:06:59.040Z,69.72
2019-03-02T14:07:59.044Z,70.01
2019-03-02T14:09:51.949Z,70.39
2019-03-02T14:10:51.961Z,70.87
2019-03-02T14:12:44.875Z,70.39
2019-03-02T14:13:44.886Z,69.91
2019-03-02T14:15:37.787Z,69.15
2019-03-02T14:16:37.800Z,69.47
2019-03-02T14:18:30.713Z,69.53
2019-03-02T14:19:30.721Z,69.27
2019-03-02T14:21:23.635Z,68.96
2019-03-02T14:22:23.646Z,68.70
2019-03-02T14:24:16.549Z,68.96
2019-03-02T14:25:19.047Z,69.15
2019-03-02T14:27:09.476Z,69.43
2019-03-02T14:28:09.484Z,69.05
2019-03-02T14:30:02.391Z,69.82
2019-03-02T14:31:02.560Z,69.91
2019-03-02T14:32:55.319Z,69.72
2019-03-02T14:33:55.327Z,70.67
2019-03-02T14:35:48.234Z,70.52
2019-03-02T14:36:48.252Z,70.67
2019-03-02T14:38:41.161Z,69.85
2019-03-02T14:39:41.169Z,69.18
2019-03-02T14:41:34.079Z,69.27
2019-03-02T14:42:34.086Z,69.18
2019-03-02T14:44:30.237Z,69.47
2019-03-02T14:45:27.007Z,68.32
2019-03-02T14:47:19.923Z,68.13
2019-03-02T14:48:19.930Z,67.97
2019-03-02T14:50:12.839Z,68.32
2019-03-02T14:51:12.854Z,67.55
2019-03-02T14:53:06.213Z,68.04
2019-03-02T14:54:05.778Z,68.04
2019-03-02T14:55:58.684Z,68.70
2019-03-02T14:56:58.702Z,68.51
2019-03-02T14:58:51.614Z,69.18
2019-03-02T14:59:51.624Z,68.70
2019-03-02T15:01:44.545Z,68.61
2019-03-02T15:02:44.583Z,68.80
2019-03-02T15:04:39.234Z,69.09
2019-03-02T15:05:37.463Z,68.70
2019-03-02T15:07:30.468Z,68.13
2019-03-02T15:08:31.531Z,68.04
2019-03-02T15:10:26.700Z,68.61
2019-03-02T15:11:23.310Z,67.46
2019-03-02T15:13:16.222Z,67.18
2019-03-02T15:14:16.231Z,67.84
2019-03-02T15:16:09.136Z,67.75
2019-03-02T15:17:11.917Z,67.75
2019-03-02T15:19:06.078Z,67.36
2019-03-02T15:20:02.072Z,67.52
2019-03-02T15:21:54.983Z,67.81
2019-03-02T15:22:56.951Z,67.52
2019-03-02T15:24:48.547Z,67.14
2019-03-02T15:25:47.912Z,66.60
2019-03-02T15:27:40.830Z,66.28
2019-03-02T15:28:40.833Z,66.28
2019-03-02T15:30:33.739Z,67.14
2019-03-02T15:31:33.754Z,66.38
2019-03-02T15:33:30.354Z,66.99
2019-03-02T15:34:26.718Z,66.89
2019-03-02T15:36:19.594Z,66.38
2019-03-02T15:37:21.043Z,66.99
2019-03-02T15:39:12.805Z,66.31
2019-03-02T15:40:12.563Z,66.31
2019-03-02T15:42:05.438Z,66.22
2019-03-02T15:43:05.449Z,66.31
2019-03-02T15:44:58.420Z,66.50
2019-03-02T15:45:58.808Z,66.22
2019-03-02T15:47:51.708Z,66.31
2019-03-02T15:48:51.299Z,66.50
2019-03-02T15:50:44.212Z,66.50
2019-03-02T15:51:44.224Z,65.74
2019-03-02T15:53:37.139Z,65.74
2019-03-02T15:54:37.163Z,64.88
2019-03-02T15:56:30.061Z,65.17
2019-03-02T15:57:39.284Z,64.78
2019-03-02T15:59:22.983Z,65.71
2019-03-02T16:00:24.259Z,65.90
2019-03-02T16:02:15.896Z,66.00
2019-03-02T16:03:19.130Z,65.80
2019-03-02T16:05:11.220Z,65.52
2019-03-02T16:06:08.825Z,65.61
2019-03-02T16:08:01.746Z,66.47
2019-03-02T16:09:01.755Z,66.76
2019-03-02T16:10:56.030Z,66.95
2019-03-02T16:11:56.044Z,67.14
2019-03-02T16:13:50.070Z,66.76
2019-03-02T16:14:48.963Z,66.44
2019-03-02T16:16:41.874Z,67.21
2019-03-02T16:17:41.890Z,67.58
2019-03-02T16:19:34.794Z,68.26
2019-03-02T16:20:34.869Z,68.26
2019-03-02T16:22:30.004Z,68.82
2019-03-02T16:23:27.722Z,68.63
2019-03-02T16:25:20.635Z,69.02
2019-03-02T16:26:20.643Z,69.11
2019-03-02T16:28:13.557Z,69.11
2019-03-02T16:29:15.044Z,69.21
2019-03-02T16:31:08.038Z,69.68
2019-03-02T16:32:06.535Z,69.97
2019-03-02T16:33:59.393Z,70.54
2019-03-02T16:34:59.398Z,70.36
2019-03-02T16:36:52.303Z,70.22
2019-03-02T16:37:53.925Z,70.79
2019-03-02T16:39:45.236Z,70.89
2019-03-02T16:40:45.236Z,71.08
2019-03-02T16:42:38.231Z,71.18
2019-03-02T16:43:38.221Z,70.98
2019-03-02T16:45:31.652Z,71.84
2019-03-02T16:46:35.079Z,71.84
2019-03-02T16:48:24.938Z,72.03
2019-03-02T16:49:24.671Z,72.03
2019-03-02T16:51:17.481Z,72.42
2019-03-02T16:52:17.494Z,72.23
2019-03-02T16:54:10.493Z,72.80
2019-03-02T16:55:10.868Z,72.42
2019-03-02T16:57:03.314Z,73.28
2019-03-02T16:58:03.329Z,73.37
2019-03-02T16:59:56.264Z,73.75
2019-03-02T17:00:56.246Z,73.37
2019-03-02T17:02:49.197Z,73.66
2019-03-02T17:03:49.168Z,74.04
2019-03-02T17:05:42.117Z,74.01
2019-03-02T17:06:42.659Z,74.32
2019-03-02T17:08:35.275Z,74.13
2019-03-02T17:09:35.000Z,74.23
2019-03-02T17:11:27.907Z,74.10
2019-03-02T17:12:27.921Z,74.71
2019-03-02T17:14:20.873Z,74.38
2019-03-02T17:15:22.659Z,74.38
2019-03-02T17:17:13.741Z,74.57
2019-03-02T17:18:13.757Z,74.67
2019-03-02T17:20:07.293Z,75.15
2019-03-02T17:21:06.675Z,75.57
2019-03-02T17:22:59.578Z,74.96
2019-03-02T17:23:59.591Z,74.96
2019-03-02T17:25:52.605Z,75.91
2019-03-02T17:26:52.509Z,75.72
2019-03-02T17:28:45.416Z,75.72
2019-03-02T17:29:48.773Z,75.91
2019-03-02T17:31:39.736Z,75.34
2019-03-02T17:32:38.338Z,75.72
2019-03-02T17:34:31.248Z,75.62
2019-03-02T17:35:32.801Z,76.10
2019-03-02T17:37:24.159Z,75.81
2019-03-02T17:38:24.174Z,75.62
2019-03-02T17:40:17.083Z,75.81
2019-03-02T17:41:18.699Z,76.01
2019-03-02T17:43:09.991Z,76.39
2019-03-02T17:44:10.006Z,76.23
2019-03-02T17:46:02.919Z,76.33
2019-03-02T17:47:02.923Z,76.29
2019-03-02T17:48:55.834Z,76.20
2019-03-02T17:49:55.841Z,76.81
2019-03-02T17:51:48.783Z,78.39
2019-03-02T17:52:50.368Z,78.67
2019-03-02T17:54:42.520Z,78.86
2019-03-02T17:55:41.671Z,80.15
2019-03-02T17:57:34.626Z,80.49
2019-03-02T17:58:34.612Z,80.68
2019-03-02T18:00:27.496Z,81.54
2019-03-02T18:01:28.759Z,81.63
2019-03-02T18:03:24.204Z,82.68
2019-03-02T18:04:20.526Z,82.87
2019-03-02T18:06:13.327Z,82.97
2019-03-02T18:07:13.333Z,83.35
2019-03-02T18:09:06.360Z,83.83
2019-03-02T18:10:06.244Z,83.83
2019-03-02T18:11:59.156Z,83.92
2019-03-02T18:13:02.308Z,84.01
2019-03-02T18:14:52.088Z,84.40
2019-03-02T18:15:52.088Z,84.69
2019-03-02T18:17:44.990Z,85.06
2019-03-02T18:18:45.005Z,84.88
2019-03-02T18:20:37.919Z,85.35
2019-03-02T18:21:37.921Z,85.45
2019-03-02T18:23:30.827Z,85.93
2019-03-02T18:24:31.925Z,86.69
2019-03-02T18:26:24.286Z,87.83
2019-03-02T18:27:23.755Z,87.93
2019-03-02T18:29:16.660Z,89.45
2019-03-02T18:30:16.704Z,89.54
2019-03-02T18:32:09.581Z,90.93
2019-03-02T18:33:11.222Z,90.45